sensor_id;sensor_type;location;lat;lon;timestamp;temperature;humidity
6429;DHT22;3247;48.946;10.220;2023-03-23T00:01:19;6.90;99.90
6429;DHT22;3247;48.946;10.220;2023-03-23T00:03:53;6.90;99.90
6429;DHT22;3247;48.946;10.220;2023-03-23T00:06:22;6.90;99.90
6429;DHT22;3247;48.946;10.220;2023-03-23T00:08:48;7.10;99.90
6429;DHT22;3247;48.946;10.220;2023-03-23T00:11:17;7.10;99.90
6429;DHT22;3247;48.946;10.220;2023-03-23T00:13:43;7.20;99.90
6429;DHT22;3247;48.946;10.220;2023-03-23T00:16:09;7.10;99.90
6429;DHT22;3247;48.946;10.220;2023-03-23T00:18:49;7.20;99.90
6429;DHT22;3247;48.946;10.220;2023-03-23T00:21:18;7.20;99.90
6429;DHT22;3247;48.946;10.220;2023-03-23T00:23:43;7.10;99.90
6429;DHT22;3247;48.946;10.220;2023-03-23T00:26:10;7.10;99.90
6429;DHT22;3247;48.946;10.220;2023-03-23T00:28:35;7.00;99.90
6429;DHT22;3247;48.946;10.220;2023-03-23T00:31:02;7.00;99.90
6429;DHT22;3247;48.946;10.220;2023-03-23T00:33:28;7.00;99.90
6429;DHT22;3247;48.946;10.220;2023-03-23T00:35:54;7.00;99.90
6429;DHT22;3247;48.946;10.220;2023-03-23T00:38:20;7.00;99.90
6429;DHT22;3247;48.946;10.220;2023-03-23T00:40:46;7.10;99.90
6429;DHT22;3247;48.946;10.220;2023-03-23T00:43:13;7.10;99.90
6429;DHT22;3247;48.946;10.220;2023-03-23T00:45:39;7.10;99.90
6429;DHT22;3247;48.946;10.220;2023-03-23T00:48:04;7.10;99.90
6429;DHT22;3247;48.946;10.220;2023-03-23T00:50:30;7.20;99.90
6429;DHT22;3247;48.946;10.220;2023-03-23T00:52:56;7.20;99.90
6429;DHT22;3247;48.946;10.220;2023-03-23T00:55:22;7.20;99.90
6429;DHT22;3247;48.946;10.220;2023-03-23T00:57:48;7.30;99.90
6429;DHT22;3247;48.946;10.220;2023-03-23T01:00:15;7.40;99.90
6429;DHT22;3247;48.946;10.220;2023-03-23T01:02:41;7.40;99.90
6429;DHT22;3247;48.946;10.220;2023-03-23T01:05:10;7.50;99.90
6429;DHT22;3247;48.946;10.220;2023-03-23T01:07:35;7.50;99.90
6429;DHT22;3247;48.946;10.220;2023-03-23T01:10:01;7.60;99.90
6429;DHT22;3247;48.946;10.220;2023-03-23T01:12:27;7.60;99.90
6429;DHT22;3247;48.946;10.220;2023-03-23T01:14:53;7.70;99.90
6429;DHT22;3247;48.946;10.220;2023-03-23T01:17:18;7.70;99.90
6429;DHT22;3247;48.946;10.220;2023-03-23T01:19:44;7.80;99.90
6429;DHT22;3247;48.946;10.220;2023-03-23T01:22:10;7.80;99.90
6429;DHT22;3247;48.946;10.220;2023-03-23T01:24:35;7.80;99.90
6429;DHT22;3247;48.946;10.220;2023-03-23T01:27:01;8.00;99.90
6429;DHT22;3247;48.946;10.220;2023-03-23T01:29:34;8.00;99.90
6429;DHT22;3247;48.946;10.220;2023-03-23T01:32:00;8.00;99.90
6429;DHT22;3247;48.946;10.220;2023-03-23T01:34:25;8.00;99.90
6429;DHT22;3247;48.946;10.220;2023-03-23T01:36:51;8.00;99.90
6429;DHT22;3247;48.946;10.220;2023-03-23T01:39:16;8.00;99.90
6429;DHT22;3247;48.946;10.220;2023-03-23T01:41:42;8.00;99.90
6429;DHT22;3247;48.946;10.220;2023-03-23T01:44:59;8.00;99.90
6429;DHT22;3247;48.946;10.220;2023-03-23T01:46:53;8.00;99.90
6429;DHT22;3247;48.946;10.220;2023-03-23T01:49:27;8.00;99.90
6429;DHT22;3247;48.946;10.220;2023-03-23T01:51:59;8.00;99.90
6429;DHT22;3247;48.946;10.220;2023-03-23T01:54:25;8.00;99.90
6429;DHT22;3247;48.946;10.220;2023-03-23T01:56:56;8.10;99.90
6429;DHT22;3247;48.946;10.220;2023-03-23T01:59:24;8.10;99.90
6429;DHT22;3247;48.946;10.220;2023-03-23T02:01:50;8.10;99.90
6429;DHT22;3247;48.946;10.220;2023-03-23T02:04:17;8.10;99.90
6429;DHT22;3247;48.946;10.220;2023-03-23T02:06:43;8.10;99.90
6429;DHT22;3247;48.946;10.220;2023-03-23T02:09:10;8.10;99.90
6429;DHT22;3247;48.946;10.220;2023-03-23T02:11:36;8.10;99.90
6429;DHT22;3247;48.946;10.220;2023-03-23T02:14:01;8.10;99.90
6429;DHT22;3247;48.946;10.220;2023-03-23T02:19:17;8.20;99.90
6429;DHT22;3247;48.946;10.220;2023-03-23T02:22:06;8.20;99.90
6429;DHT22;3247;48.946;10.220;2023-03-23T02:27:33;8.30;99.90
6429;DHT22;3247;48.946;10.220;2023-03-23T02:32:34;8.40;99.90
6429;DHT22;3247;48.946;10.220;2023-03-23T02:35:12;8.40;99.90
6429;DHT22;3247;48.946;10.220;2023-03-23T02:37:51;8.40;99.90
6429;DHT22;3247;48.946;10.220;2023-03-23T02:40:21;8.50;99.90
6429;DHT22;3247;48.946;10.220;2023-03-23T02:42:49;8.50;99.90
6429;DHT22;3247;48.946;10.220;2023-03-23T02:45:16;8.60;99.90
6429;DHT22;3247;48.946;10.220;2023-03-23T02:47:42;8.60;99.90
6429;DHT22;3247;48.946;10.220;2023-03-23T02:50:09;8.60;99.90
6429;DHT22;3247;48.946;10.220;2023-03-23T02:52:35;8.60;99.90
6429;DHT22;3247;48.946;10.220;2023-03-23T02:55:03;8.70;99.90
6429;DHT22;3247;48.946;10.220;2023-03-23T02:57:29;8.70;99.90
6429;DHT22;3247;48.946;10.220;2023-03-23T02:59:55;8.70;99.90
6429;DHT22;3247;48.946;10.220;2023-03-23T03:02:34;8.80;99.90
6429;DHT22;3247;48.946;10.220;2023-03-23T03:10:10;8.90;99.90
6429;DHT22;3247;48.946;10.220;2023-03-23T03:12:52;8.90;99.90
6429;DHT22;3247;48.946;10.220;2023-03-23T03:15:23;8.90;99.90
6429;DHT22;3247;48.946;10.220;2023-03-23T03:17:52;9.00;99.90
6429;DHT22;3247;48.946;10.220;2023-03-23T03:20:20;9.10;99.90
6429;DHT22;3247;48.946;10.220;2023-03-23T03:22:47;9.00;99.90
6429;DHT22;3247;48.946;10.220;2023-03-23T03:25:13;9.10;99.90
6429;DHT22;3247;48.946;10.220;2023-03-23T03:27:52;9.10;99.90
6429;DHT22;3247;48.946;10.220;2023-03-23T03:30:20;9.00;99.90
6429;DHT22;3247;48.946;10.220;2023-03-23T03:32:48;9.10;99.90
6429;DHT22;3247;48.946;10.220;2023-03-23T03:35:16;9.10;99.90
6429;DHT22;3247;48.946;10.220;2023-03-23T03:37:42;9.10;99.90
6429;DHT22;3247;48.946;10.220;2023-03-23T03:40:09;9.10;99.90
6429;DHT22;3247;48.946;10.220;2023-03-23T03:42:40;9.20;99.90
6429;DHT22;3247;48.946;10.220;2023-03-23T03:45:06;9.20;99.90
6429;DHT22;3247;48.946;10.220;2023-03-23T03:47:32;9.20;99.90
6429;DHT22;3247;48.946;10.220;2023-03-23T03:49:58;9.20;99.90
6429;DHT22;3247;48.946;10.220;2023-03-23T03:52:23;9.30;99.90
6429;DHT22;3247;48.946;10.220;2023-03-23T03:54:49;9.40;99.90
6429;DHT22;3247;48.946;10.220;2023-03-23T03:57:14;9.40;99.90
6429;DHT22;3247;48.946;10.220;2023-03-23T03:59:40;9.50;99.90
6429;DHT22;3247;48.946;10.220;2023-03-23T04:02:06;9.60;99.90
6429;DHT22;3247;48.946;10.220;2023-03-23T04:04:36;9.60;99.90
6429;DHT22;3247;48.946;10.220;2023-03-23T04:07:02;9.70;99.90
6429;DHT22;3247;48.946;10.220;2023-03-23T04:09:28;9.70;99.90
6429;DHT22;3247;48.946;10.220;2023-03-23T04:11:53;9.80;99.90
6429;DHT22;3247;48.946;10.220;2023-03-23T04:14:19;9.80;99.90
6429;DHT22;3247;48.946;10.220;2023-03-23T04:16:44;9.90;99.90
6429;DHT22;3247;48.946;10.220;2023-03-23T04:19:10;10.00;99.90
6429;DHT22;3247;48.946;10.220;2023-03-23T04:21:37;9.90;99.90
6429;DHT22;3247;48.946;10.220;2023-03-23T04:24:03;10.00;99.90
6429;DHT22;3247;48.946;10.220;2023-03-23T04:26:29;10.00;99.90
6429;DHT22;3247;48.946;10.220;2023-03-23T04:28:55;10.10;99.90
6429;DHT22;3247;48.946;10.220;2023-03-23T04:31:21;10.10;99.90
6429;DHT22;3247;48.946;10.220;2023-03-23T04:33:52;10.20;99.90
6429;DHT22;3247;48.946;10.220;2023-03-23T04:36:18;10.20;99.90
6429;DHT22;3247;48.946;10.220;2023-03-23T04:38:43;10.30;99.90
6429;DHT22;3247;48.946;10.220;2023-03-23T04:41:09;10.30;99.90
6429;DHT22;3247;48.946;10.220;2023-03-23T04:43:34;10.40;99.90
6429;DHT22;3247;48.946;10.220;2023-03-23T04:46:06;10.50;99.90
6429;DHT22;3247;48.946;10.220;2023-03-23T04:48:34;10.60;99.90
6429;DHT22;3247;48.946;10.220;2023-03-23T04:51:02;10.80;99.90
6429;DHT22;3247;48.946;10.220;2023-03-23T04:53:29;10.90;99.90
6429;DHT22;3247;48.946;10.220;2023-03-23T04:55:55;10.90;99.90
6429;DHT22;3247;48.946;10.220;2023-03-23T04:58:21;10.90;99.90
6429;DHT22;3247;48.946;10.220;2023-03-23T05:00:48;11.00;99.90
6429;DHT22;3247;48.946;10.220;2023-03-23T05:03:17;11.00;99.90
6429;DHT22;3247;48.946;10.220;2023-03-23T05:05:43;11.00;99.90
6429;DHT22;3247;48.946;10.220;2023-03-23T05:08:12;11.00;99.90
6429;DHT22;3247;48.946;10.220;2023-03-23T05:10:38;10.90;99.90
6429;DHT22;3247;48.946;10.220;2023-03-23T05:13:03;10.90;99.90
6429;DHT22;3247;48.946;10.220;2023-03-23T05:15:29;10.90;99.90
6429;DHT22;3247;48.946;10.220;2023-03-23T05:17:57;10.90;99.90
6429;DHT22;3247;48.946;10.220;2023-03-23T05:20:22;10.90;99.90
6429;DHT22;3247;48.946;10.220;2023-03-23T05:22:48;11.20;99.90
6429;DHT22;3247;48.946;10.220;2023-03-23T05:25:14;11.00;99.90
6429;DHT22;3247;48.946;10.220;2023-03-23T05:27:40;11.10;99.90
6429;DHT22;3247;48.946;10.220;2023-03-23T05:30:08;11.20;99.90
6429;DHT22;3247;48.946;10.220;2023-03-23T05:32:34;11.30;99.90
6429;DHT22;3247;48.946;10.220;2023-03-23T05:35:00;11.40;99.90
6429;DHT22;3247;48.946;10.220;2023-03-23T05:37:26;11.40;99.90
6429;DHT22;3247;48.946;10.220;2023-03-23T05:39:52;11.50;99.90
6429;DHT22;3247;48.946;10.220;2023-03-23T05:42:19;12.10;99.90
6429;DHT22;3247;48.946;10.220;2023-03-23T05:44:45;11.60;99.90
6429;DHT22;3247;48.946;10.220;2023-03-23T05:47:10;11.60;99.90
6429;DHT22;3247;48.946;10.220;2023-03-23T05:49:36;11.70;99.90
6429;DHT22;3247;48.946;10.220;2023-03-23T05:52:01;11.70;99.90
6429;DHT22;3247;48.946;10.220;2023-03-23T05:54:27;11.70;99.90
6429;DHT22;3247;48.946;10.220;2023-03-23T05:56:52;11.80;99.90
6429;DHT22;3247;48.946;10.220;2023-03-23T05:59:18;11.80;99.90
6429;DHT22;3247;48.946;10.220;2023-03-23T06:01:44;11.90;99.90
6429;DHT22;3247;48.946;10.220;2023-03-23T06:04:12;11.90;99.90
6429;DHT22;3247;48.946;10.220;2023-03-23T06:06:39;11.90;99.90
6429;DHT22;3247;48.946;10.220;2023-03-23T06:09:06;12.00;99.90
6429;DHT22;3247;48.946;10.220;2023-03-23T06:11:32;12.00;99.90
6429;DHT22;3247;48.946;10.220;2023-03-23T06:13:57;12.10;99.90
6429;DHT22;3247;48.946;10.220;2023-03-23T06:16:23;12.10;99.90
6429;DHT22;3247;48.946;10.220;2023-03-23T06:18:49;12.10;99.90
6429;DHT22;3247;48.946;10.220;2023-03-23T06:21:14;12.20;99.90
6429;DHT22;3247;48.946;10.220;2023-03-23T06:23:40;12.20;99.90
6429;DHT22;3247;48.946;10.220;2023-03-23T06:26:07;12.20;99.90
6429;DHT22;3247;48.946;10.220;2023-03-23T06:28:33;12.30;99.90
6429;DHT22;3247;48.946;10.220;2023-03-23T06:30:59;12.30;99.90
6429;DHT22;3247;48.946;10.220;2023-03-23T06:33:25;12.40;99.90
6429;DHT22;3247;48.946;10.220;2023-03-23T06:35:56;12.30;99.90
6429;DHT22;3247;48.946;10.220;2023-03-23T06:38:22;12.40;99.90
6429;DHT22;3247;48.946;10.220;2023-03-23T06:40:51;12.50;99.90
6429;DHT22;3247;48.946;10.220;2023-03-23T06:43:16;12.60;99.90
6429;DHT22;3247;48.946;10.220;2023-03-23T06:45:42;12.70;99.90
6429;DHT22;3247;48.946;10.220;2023-03-23T06:48:07;12.70;99.90
6429;DHT22;3247;48.946;10.220;2023-03-23T06:50:33;12.90;99.90
6429;DHT22;3247;48.946;10.220;2023-03-23T06:52:58;13.00;99.90
6429;DHT22;3247;48.946;10.220;2023-03-23T06:55:24;13.10;99.90
6429;DHT22;3247;48.946;10.220;2023-03-23T06:57:49;13.20;99.90
6429;DHT22;3247;48.946;10.220;2023-03-23T07:00:15;13.30;99.90
6429;DHT22;3247;48.946;10.220;2023-03-23T07:02:41;13.40;99.90
6429;DHT22;3247;48.946;10.220;2023-03-23T07:05:13;13.50;99.90
6429;DHT22;3247;48.946;10.220;2023-03-23T07:07:39;13.50;99.90
6429;DHT22;3247;48.946;10.220;2023-03-23T07:10:06;13.70;99.90
6429;DHT22;3247;48.946;10.220;2023-03-23T07:12:32;13.70;99.90
6429;DHT22;3247;48.946;10.220;2023-03-23T07:14:58;13.80;99.90
6429;DHT22;3247;48.946;10.220;2023-03-23T07:17:24;13.80;99.90
6429;DHT22;3247;48.946;10.220;2023-03-23T07:19:49;13.80;99.90
6429;DHT22;3247;48.946;10.220;2023-03-23T07:22:15;13.90;99.90
6429;DHT22;3247;48.946;10.220;2023-03-23T07:24:41;14.00;99.90
6429;DHT22;3247;48.946;10.220;2023-03-23T07:27:07;14.10;99.90
6429;DHT22;3247;48.946;10.220;2023-03-23T07:29:32;14.20;99.90
6429;DHT22;3247;48.946;10.220;2023-03-23T07:32:01;14.40;99.90
6429;DHT22;3247;48.946;10.220;2023-03-23T07:34:32;14.60;99.90
6429;DHT22;3247;48.946;10.220;2023-03-23T07:36:58;14.70;99.90
6429;DHT22;3247;48.946;10.220;2023-03-23T07:39:24;14.80;99.90
6429;DHT22;3247;48.946;10.220;2023-03-23T07:41:50;14.80;99.90
6429;DHT22;3247;48.946;10.220;2023-03-23T07:44:16;14.90;99.90
6429;DHT22;3247;48.946;10.220;2023-03-23T07:46:41;15.00;99.90
6429;DHT22;3247;48.946;10.220;2023-03-23T07:49:07;15.10;99.90
6429;DHT22;3247;48.946;10.220;2023-03-23T07:51:33;15.10;99.90
6429;DHT22;3247;48.946;10.220;2023-03-23T07:53:59;15.20;99.90
6429;DHT22;3247;48.946;10.220;2023-03-23T07:56:25;15.10;99.90
6429;DHT22;3247;48.946;10.220;2023-03-23T07:58:51;15.20;99.90
6429;DHT22;3247;48.946;10.220;2023-03-23T08:01:16;15.20;99.90
6429;DHT22;3247;48.946;10.220;2023-03-23T08:03:42;15.10;99.90
6429;DHT22;3247;48.946;10.220;2023-03-23T08:06:08;15.10;99.90
6429;DHT22;3247;48.946;10.220;2023-03-23T08:08:34;15.10;99.90
6429;DHT22;3247;48.946;10.220;2023-03-23T08:10:59;15.00;99.90
6429;DHT22;3247;48.946;10.220;2023-03-23T08:13:25;14.90;99.90
6429;DHT22;3247;48.946;10.220;2023-03-23T08:15:50;14.80;99.90
6429;DHT22;3247;48.946;10.220;2023-03-23T08:18:16;14.80;99.90
6429;DHT22;3247;48.946;10.220;2023-03-23T08:20:42;14.80;99.90
6429;DHT22;3247;48.946;10.220;2023-03-23T08:23:10;14.80;99.90
6429;DHT22;3247;48.946;10.220;2023-03-23T08:25:35;14.80;99.90
6429;DHT22;3247;48.946;10.220;2023-03-23T08:28:01;14.90;99.90
6429;DHT22;3247;48.946;10.220;2023-03-23T08:30:27;15.10;99.90
6429;DHT22;3247;48.946;10.220;2023-03-23T08:32:54;15.20;99.90
6429;DHT22;3247;48.946;10.220;2023-03-23T08:35:25;15.30;99.90
6429;DHT22;3247;48.946;10.220;2023-03-23T08:37:50;15.40;99.90
6429;DHT22;3247;48.946;10.220;2023-03-23T08:40:17;15.60;99.90
6429;DHT22;3247;48.946;10.220;2023-03-23T08:42:45;15.70;99.90
6429;DHT22;3247;48.946;10.220;2023-03-23T08:45:11;15.70;99.90
6429;DHT22;3247;48.946;10.220;2023-03-23T08:47:37;15.80;99.90
6429;DHT22;3247;48.946;10.220;2023-03-23T08:50:04;15.90;99.90
6429;DHT22;3247;48.946;10.220;2023-03-23T08:52:30;16.10;99.90
6429;DHT22;3247;48.946;10.220;2023-03-23T08:54:55;16.10;99.90
6429;DHT22;3247;48.946;10.220;2023-03-23T08:57:22;16.10;99.90
6429;DHT22;3247;48.946;10.220;2023-03-23T08:59:48;16.20;99.90
6429;DHT22;3247;48.946;10.220;2023-03-23T09:02:13;16.30;99.90
6429;DHT22;3247;48.946;10.220;2023-03-23T09:04:39;16.40;99.90
6429;DHT22;3247;48.946;10.220;2023-03-23T09:07:10;16.50;99.90
6429;DHT22;3247;48.946;10.220;2023-03-23T09:09:37;16.70;99.90
6429;DHT22;3247;48.946;10.220;2023-03-23T09:12:05;16.80;99.90
6429;DHT22;3247;48.946;10.220;2023-03-23T09:14:31;16.80;99.90
6429;DHT22;3247;48.946;10.220;2023-03-23T09:16:58;17.10;99.90
6429;DHT22;3247;48.946;10.220;2023-03-23T09:19:23;17.20;99.90
6429;DHT22;3247;48.946;10.220;2023-03-23T09:21:49;17.60;99.90
6429;DHT22;3247;48.946;10.220;2023-03-23T09:24:15;17.40;99.90
6429;DHT22;3247;48.946;10.220;2023-03-23T09:26:40;17.30;99.90
6429;DHT22;3247;48.946;10.220;2023-03-23T09:29:06;17.30;99.90
6429;DHT22;3247;48.946;10.220;2023-03-23T09:31:31;17.20;99.90
6429;DHT22;3247;48.946;10.220;2023-03-23T09:33:58;17.00;99.90
6429;DHT22;3247;48.946;10.220;2023-03-23T09:36:24;16.80;99.90
6429;DHT22;3247;48.946;10.220;2023-03-23T09:38:51;16.80;99.90
6429;DHT22;3247;48.946;10.220;2023-03-23T09:41:35;16.80;99.90
6429;DHT22;3247;48.946;10.220;2023-03-23T09:44:05;16.80;99.90
6429;DHT22;3247;48.946;10.220;2023-03-23T09:46:41;16.90;99.90
6429;DHT22;3247;48.946;10.220;2023-03-23T09:49:23;17.00;99.90
6429;DHT22;3247;48.946;10.220;2023-03-23T09:51:51;17.10;99.90
6429;DHT22;3247;48.946;10.220;2023-03-23T09:54:19;17.10;99.90
6429;DHT22;3247;48.946;10.220;2023-03-23T09:56:46;17.10;99.90
6429;DHT22;3247;48.946;10.220;2023-03-23T10:01:50;16.80;99.90
6429;DHT22;3247;48.946;10.220;2023-03-23T10:06:46;16.60;99.90
6429;DHT22;3247;48.946;10.220;2023-03-23T10:09:14;16.60;99.90
6429;DHT22;3247;48.946;10.220;2023-03-23T10:14:09;16.60;99.90
6429;DHT22;3247;48.946;10.220;2023-03-23T10:16:46;16.60;99.90
6429;DHT22;3247;48.946;10.220;2023-03-23T10:19:26;16.70;99.90
6429;DHT22;3247;48.946;10.220;2023-03-23T10:21:55;16.70;99.90
6429;DHT22;3247;48.946;10.220;2023-03-23T10:24:25;16.90;99.90
6429;DHT22;3247;48.946;10.220;2023-03-23T10:26:55;17.00;99.90
6429;DHT22;3247;48.946;10.220;2023-03-23T10:29:29;17.10;99.90
6429;DHT22;3247;48.946;10.220;2023-03-23T10:32:04;17.20;99.90
6429;DHT22;3247;48.946;10.220;2023-03-23T10:37:01;17.10;99.90
6429;DHT22;3247;48.946;10.220;2023-03-23T10:39:30;17.00;99.90
6429;DHT22;3247;48.946;10.220;2023-03-23T10:41:57;16.80;99.90
6429;DHT22;3247;48.946;10.220;2023-03-23T10:44:27;16.70;99.90
6429;DHT22;3247;48.946;10.220;2023-03-23T10:46:59;16.60;99.90
6429;DHT22;3247;48.946;10.220;2023-03-23T10:49:29;16.40;99.90
6429;DHT22;3247;48.946;10.220;2023-03-23T10:52:20;16.20;99.90
6429;DHT22;3247;48.946;10.220;2023-03-23T10:54:50;16.20;99.90
6429;DHT22;3247;48.946;10.220;2023-03-23T10:59:46;16.20;99.90
6429;DHT22;3247;48.946;10.220;2023-03-23T11:02:18;16.20;99.90
6429;DHT22;3247;48.946;10.220;2023-03-23T11:04:55;16.30;99.90
6429;DHT22;3247;48.946;10.220;2023-03-23T11:07:24;16.50;99.90
6429;DHT22;3247;48.946;10.220;2023-03-23T11:09:52;16.50;99.90
6429;DHT22;3247;48.946;10.220;2023-03-23T11:12:18;16.60;99.90
6429;DHT22;3247;48.946;10.220;2023-03-23T11:14:45;16.60;99.90
6429;DHT22;3247;48.946;10.220;2023-03-23T11:17:20;16.60;99.90
6429;DHT22;3247;48.946;10.220;2023-03-23T11:19:45;16.60;99.90
6429;DHT22;3247;48.946;10.220;2023-03-23T11:22:20;16.50;99.90
6429;DHT22;3247;48.946;10.220;2023-03-23T11:24:47;16.40;99.90
6429;DHT22;3247;48.946;10.220;2023-03-23T11:27:13;16.40;99.90
6429;DHT22;3247;48.946;10.220;2023-03-23T11:29:47;17.10;99.90
6429;DHT22;3247;48.946;10.220;2023-03-23T11:32:14;16.70;99.90
6429;DHT22;3247;48.946;10.220;2023-03-23T11:34:41;16.90;99.90
6429;DHT22;3247;48.946;10.220;2023-03-23T11:37:08;17.40;99.90
6429;DHT22;3247;48.946;10.220;2023-03-23T11:39:45;17.60;99.90
6429;DHT22;3247;48.946;10.220;2023-03-23T11:42:12;17.70;99.90
6429;DHT22;3247;48.946;10.220;2023-03-23T11:44:41;17.70;99.90
6429;DHT22;3247;48.946;10.220;2023-03-23T11:47:09;17.90;99.90
6429;DHT22;3247;48.946;10.220;2023-03-23T11:49:52;18.00;99.90
6429;DHT22;3247;48.946;10.220;2023-03-23T11:54:46;18.30;99.90
6429;DHT22;3247;48.946;10.220;2023-03-23T11:57:14;18.60;99.90
6429;DHT22;3247;48.946;10.220;2023-03-23T11:59:41;18.80;99.90
6429;DHT22;3247;48.946;10.220;2023-03-23T12:04:57;18.90;99.90
6429;DHT22;3247;48.946;10.220;2023-03-23T12:10:30;19.00;99.90
6429;DHT22;3247;48.946;10.220;2023-03-23T12:13:15;19.00;99.90
6429;DHT22;3247;48.946;10.220;2023-03-23T12:18:30;18.80;99.90
6429;DHT22;3247;48.946;10.220;2023-03-23T12:23:44;18.90;99.90
6429;DHT22;3247;48.946;10.220;2023-03-23T12:29:02;18.90;99.90
6429;DHT22;3247;48.946;10.220;2023-03-23T12:31:48;19.00;99.90
6429;DHT22;3247;48.946;10.220;2023-03-23T12:39:25;19.00;99.90
6429;DHT22;3247;48.946;10.220;2023-03-23T12:44:17;19.00;99.90
6429;DHT22;3247;48.946;10.220;2023-03-23T12:46:55;19.00;99.90
6429;DHT22;3247;48.946;10.220;2023-03-23T12:49:29;19.00;99.90
6429;DHT22;3247;48.946;10.220;2023-03-23T12:51:57;19.00;99.90
6429;DHT22;3247;48.946;10.220;2023-03-23T12:54:29;19.10;99.90
6429;DHT22;3247;48.946;10.220;2023-03-23T12:57:41;19.00;99.90
6429;DHT22;3247;48.946;10.220;2023-03-23T13:02:20;19.10;99.90
6429;DHT22;3247;48.946;10.220;2023-03-23T13:04:51;19.10;99.90
6429;DHT22;3247;48.946;10.220;2023-03-23T13:07:19;18.90;99.90
6429;DHT22;3247;48.946;10.220;2023-03-23T13:12:18;18.90;99.90
6429;DHT22;3247;48.946;10.220;2023-03-23T13:17:42;18.70;99.90
6429;DHT22;3247;48.946;10.220;2023-03-23T13:22:44;18.60;99.90
6429;DHT22;3247;48.946;10.220;2023-03-23T13:25:15;18.50;99.90
6429;DHT22;3247;48.946;10.220;2023-03-23T13:27:42;18.50;99.90
6429;DHT22;3247;48.946;10.220;2023-03-23T13:30:20;18.40;99.90
6429;DHT22;3247;48.946;10.220;2023-03-23T13:32:50;18.40;99.90
6429;DHT22;3247;48.946;10.220;2023-03-23T13:35:16;18.30;99.90
6429;DHT22;3247;48.946;10.220;2023-03-23T13:37:46;18.30;99.90
6429;DHT22;3247;48.946;10.220;2023-03-23T13:42:47;18.50;99.90
6429;DHT22;3247;48.946;10.220;2023-03-23T13:48:04;18.40;99.90
6429;DHT22;3247;48.946;10.220;2023-03-23T13:50:31;18.30;99.90
6429;DHT22;3247;48.946;10.220;2023-03-23T13:53:01;18.40;99.90
6429;DHT22;3247;48.946;10.220;2023-03-23T14:05:38;18.10;99.90
6429;DHT22;3247;48.946;10.220;2023-03-23T14:10:38;18.00;99.90
6429;DHT22;3247;48.946;10.220;2023-03-23T14:13:04;17.90;99.90
6429;DHT22;3247;48.946;10.220;2023-03-23T14:15:36;17.90;99.90
6429;DHT22;3247;48.946;10.220;2023-03-23T14:18:03;17.90;99.90
6429;DHT22;3247;48.946;10.220;2023-03-23T14:20:30;17.90;99.90
6429;DHT22;3247;48.946;10.220;2023-03-23T14:22:57;17.90;99.90
6429;DHT22;3247;48.946;10.220;2023-03-23T14:25:26;18.00;99.90
6429;DHT22;3247;48.946;10.220;2023-03-23T14:27:52;18.10;99.90
6429;DHT22;3247;48.946;10.220;2023-03-23T14:30:19;18.00;99.90
6429;DHT22;3247;48.946;10.220;2023-03-23T14:32:45;18.00;99.90
6429;DHT22;3247;48.946;10.220;2023-03-23T14:35:32;17.90;99.90
6429;DHT22;3247;48.946;10.220;2023-03-23T14:37:57;17.80;99.90
6429;DHT22;3247;48.946;10.220;2023-03-23T14:40:23;17.70;99.90
6429;DHT22;3247;48.946;10.220;2023-03-23T14:42:50;17.70;99.90
6429;DHT22;3247;48.946;10.220;2023-03-23T14:45:19;17.70;99.90
6429;DHT22;3247;48.946;10.220;2023-03-23T14:47:47;17.50;99.90
6429;DHT22;3247;48.946;10.220;2023-03-23T14:53:09;17.50;99.90
6429;DHT22;3247;48.946;10.220;2023-03-23T14:55:35;17.50;99.90
6429;DHT22;3247;48.946;10.220;2023-03-23T14:58:07;17.30;99.90
6429;DHT22;3247;48.946;10.220;2023-03-23T15:00:38;17.40;99.90
6429;DHT22;3247;48.946;10.220;2023-03-23T15:03:05;17.30;99.90
6429;DHT22;3247;48.946;10.220;2023-03-23T15:05:36;17.40;99.90
6429;DHT22;3247;48.946;10.220;2023-03-23T15:08:08;17.40;99.90
6429;DHT22;3247;48.946;10.220;2023-03-23T15:10:36;17.40;99.90
6429;DHT22;3247;48.946;10.220;2023-03-23T15:13:02;17.40;99.90
6429;DHT22;3247;48.946;10.220;2023-03-23T15:15:31;17.30;99.90
6429;DHT22;3247;48.946;10.220;2023-03-23T15:17:57;17.20;99.90
6429;DHT22;3247;48.946;10.220;2023-03-23T15:20:24;17.20;99.90
6429;DHT22;3247;48.946;10.220;2023-03-23T15:22:50;17.20;99.90
6429;DHT22;3247;48.946;10.220;2023-03-23T15:27:55;17.10;99.90
6429;DHT22;3247;48.946;10.220;2023-03-23T15:32:51;17.00;99.90
6429;DHT22;3247;48.946;10.220;2023-03-23T15:35:17;17.00;99.90
6429;DHT22;3247;48.946;10.220;2023-03-23T15:37:44;17.00;99.90
6429;DHT22;3247;48.946;10.220;2023-03-23T15:40:17;16.90;99.90
6429;DHT22;3247;48.946;10.220;2023-03-23T15:42:43;16.80;99.90
6429;DHT22;3247;48.946;10.220;2023-03-23T15:52:33;16.50;99.90
6429;DHT22;3247;48.946;10.220;2023-03-23T15:54:59;16.40;99.90
6429;DHT22;3247;48.946;10.220;2023-03-23T15:57:25;16.30;99.90
6429;DHT22;3247;48.946;10.220;2023-03-23T15:59:50;16.20;99.90
6429;DHT22;3247;48.946;10.220;2023-03-23T16:02:18;16.20;99.90
6429;DHT22;3247;48.946;10.220;2023-03-23T16:04:50;16.10;99.90
6429;DHT22;3247;48.946;10.220;2023-03-23T16:07:16;16.10;99.90
6429;DHT22;3247;48.946;10.220;2023-03-23T16:09:42;16.00;99.90
6429;DHT22;3247;48.946;10.220;2023-03-23T16:12:09;15.90;99.90
6429;DHT22;3247;48.946;10.220;2023-03-23T16:14:37;15.80;99.90
6429;DHT22;3247;48.946;10.220;2023-03-23T16:17:02;15.70;99.90
6429;DHT22;3247;48.946;10.220;2023-03-23T16:19:28;15.70;99.90
6429;DHT22;3247;48.946;10.220;2023-03-23T16:21:53;15.50;99.90
6429;DHT22;3247;48.946;10.220;2023-03-23T16:24:19;15.50;99.90
6429;DHT22;3247;48.946;10.220;2023-03-23T16:26:44;15.50;99.90
6429;DHT22;3247;48.946;10.220;2023-03-23T16:29:14;15.40;99.90
6429;DHT22;3247;48.946;10.220;2023-03-23T16:31:39;15.30;99.90
6429;DHT22;3247;48.946;10.220;2023-03-23T16:34:05;15.40;99.90
6429;DHT22;3247;48.946;10.220;2023-03-23T16:36:31;15.30;99.90
6429;DHT22;3247;48.946;10.220;2023-03-23T16:38:56;15.20;99.90
6429;DHT22;3247;48.946;10.220;2023-03-23T16:41:22;15.20;99.90
6429;DHT22;3247;48.946;10.220;2023-03-23T16:43:48;15.10;99.90
6429;DHT22;3247;48.946;10.220;2023-03-23T16:46:13;15.00;99.90
6429;DHT22;3247;48.946;10.220;2023-03-23T16:48:38;15.00;99.90
6429;DHT22;3247;48.946;10.220;2023-03-23T16:51:04;14.90;99.90
6429;DHT22;3247;48.946;10.220;2023-03-23T16:53:30;14.90;99.90
6429;DHT22;3247;48.946;10.220;2023-03-23T16:55:56;14.80;99.90
6429;DHT22;3247;48.946;10.220;2023-03-23T16:58:22;14.80;99.90
6429;DHT22;3247;48.946;10.220;2023-03-23T17:00:48;14.70;99.90
6429;DHT22;3247;48.946;10.220;2023-03-23T17:03:14;14.70;99.90
6429;DHT22;3247;48.946;10.220;2023-03-23T17:05:40;14.70;99.90
6429;DHT22;3247;48.946;10.220;2023-03-23T17:08:05;14.70;99.90
6429;DHT22;3247;48.946;10.220;2023-03-23T17:10:31;14.70;99.90
6429;DHT22;3247;48.946;10.220;2023-03-23T17:12:57;14.50;99.90
6429;DHT22;3247;48.946;10.220;2023-03-23T17:15:22;14.50;99.90
6429;DHT22;3247;48.946;10.220;2023-03-23T17:17:51;14.40;99.90
6429;DHT22;3247;48.946;10.220;2023-03-23T17:20:16;14.40;99.90
6429;DHT22;3247;48.946;10.220;2023-03-23T17:22:42;14.40;99.90
6429;DHT22;3247;48.946;10.220;2023-03-23T17:25:08;14.50;99.90
6429;DHT22;3247;48.946;10.220;2023-03-23T17:27:34;14.40;99.90